This is the latest recevied weather packets stored in our database for station/object GW7110. If no packets are shown the sender has not sent any weather packets the latest 10 day(s).
| Time | Temp. | Humidity | Pressure | Rain* | Wind** | Luminosity | Snow |
|---|---|---|---|---|---|---|---|
| 1777840138 | 21.11° C | 41% | 30.1 hPa | 0 mm | - | 735 W/m² | - |
| 1777839839 | 21.11° C | 40% | 30.1 hPa | 0 mm | - | 753 W/m² | - |
| 1777839539 | 21.11° C | 39% | 30.1 hPa | 0 mm | - | 768 W/m² | - |
| 1777838639 | 20.56° C | 42% | 30.1 hPa | 0 mm | - | 813 W/m² | - |
| 1777835940 | 20° C | 45% | 30.1 hPa | 0 mm | - | 930 W/m² | - |
| 1777833840 | 18.89° C | 44% | 30.1 hPa | 0 mm | - | 989 W/m² | - |
| 1777833238 | 18.33° C | 44% | 30.1 hPa | 0 mm | - | 996 W/m² | - |
| 1777832939 | 18.89° C | 45% | 30.1 hPa | 0 mm | - | 1006 W/m² | - |
| 1777832371 | 18.33° C | 43% | 30.1 hPa | 0 mm | - | 1016 W/m² | - |
| 1777829640 | 17.22° C | 44% | 30.2 hPa | 0 mm | - | 1033 W/m² | - |
| 1777826339 | 15.56° C | 46% | 30.2 hPa | 0 mm | - | 72 W/m² | - |
| 1777825139 | 15.56° C | 45% | 30.2 hPa | 0 mm | - | 57 W/m² | - |
| 1777823939 | 15° C | 52% | 30.2 hPa | 0 mm | - | 54 W/m² | - |
| 1777819439 | 13.33° C | 65% | 30.2 hPa | 0 mm | - | 43 W/m² | - |
| 1777817939 | 11.67° C | 72% | 30.2 hPa | 0 mm | - | 41 W/m² | - |
| 1777817039 | 11.11° C | 76% | 30.2 hPa | 0 mm | - | 40 W/m² | - |
| 1777815539 | 10.56° C | 77% | 30.2 hPa | 0 mm | - | 38 W/m² | - |
| 1777813739 | 9.44° C | 80% | 30.2 hPa | 0 mm | - | 50 W/m² | - |
| 1777811340 | 7.78° C | 87% | 30.2 hPa | 0 mm | - | 30 W/m² | - |
| 1777809539 | 6.67° C | 90% | 30.2 hPa | 0 mm | - | 24 W/m² | - |
| 1777804439 | 6.11° C | 90% | 30.1 hPa | 0 mm | - | - | - |
| 1777777438 | 12.22° C | 61% | 30.1 hPa | 0 mm | - | - | - |
| 1777766639 | 17.78° C | 41% | 30 hPa | 0 mm | - | 16 W/m² | - |
| 1777760939 | 21.11° C | 36% | 30 hPa | 0 mm | - | 287 W/m² | - |
| 1777760638 | 21.11° C | 36% | 30 hPa | 0 mm | - | 312 W/m² | - |
* Rain latest hour (hover to see other rain measurements)
** Current wind speed in m/s (hover to see current wind gust speed)